createdAt,value
2023-04-20T00:02:17.615Z,5.36
2023-04-20T00:04:44.179Z,5.27
2023-04-20T00:07:11.013Z,5.17
2023-04-20T00:09:37.485Z,5.14
2023-04-20T00:12:04.225Z,5.11
2023-04-20T00:14:30.780Z,5.08
2023-04-20T00:16:57.262Z,5.07
2023-04-20T00:19:23.930Z,5.08
2023-04-20T00:21:50.369Z,5.09
2023-04-20T00:24:16.818Z,5.12
2023-04-20T00:26:43.387Z,5.10
2023-04-20T00:29:09.986Z,5.10
2023-04-20T00:31:36.866Z,5.08
2023-04-20T00:34:03.376Z,5.07
2023-04-20T00:36:30.059Z,5.04
2023-04-20T00:38:58.897Z,5.04
2023-04-20T00:41:28.327Z,5.00
2023-04-20T00:43:54.864Z,5.02
2023-04-20T00:46:21.881Z,5.00
2023-04-20T00:48:51.184Z,4.98
2023-04-20T00:51:19.348Z,4.97
2023-04-20T00:53:46.028Z,4.94
2023-04-20T00:56:16.557Z,4.85
2023-04-20T00:58:43.644Z,4.87
2023-04-20T01:01:11.196Z,4.88
2023-04-20T01:03:40.041Z,4.85
2023-04-20T01:06:07.436Z,4.84
2023-04-20T01:08:33.870Z,4.83
2023-04-20T01:11:03.578Z,4.82
2023-04-20T01:13:30.343Z,4.79
2023-04-20T01:16:00.330Z,4.82
2023-04-20T01:18:27.039Z,4.79
2023-04-20T01:20:53.432Z,4.72
2023-04-20T01:23:20.349Z,4.75
2023-04-20T01:25:46.791Z,4.77
2023-04-20T01:28:14.544Z,4.73
2023-04-20T01:30:42.186Z,4.75
2023-04-20T01:33:08.700Z,4.70
2023-04-20T01:35:35.202Z,4.61
2023-04-20T01:38:01.772Z,4.54
2023-04-20T01:40:28.209Z,4.50
2023-04-20T01:42:54.688Z,4.49
2023-04-20T01:45:22.433Z,4.48
2023-04-20T01:47:48.928Z,4.49
2023-04-20T01:50:15.495Z,4.46
2023-04-20T01:52:41.954Z,4.37
2023-04-20T01:55:11.588Z,4.28
2023-04-20T01:57:38.052Z,4.28
2023-04-20T02:00:05.184Z,4.21
2023-04-20T02:02:40.822Z,4.19
2023-04-20T02:05:07.904Z,4.26
2023-04-20T02:07:34.407Z,4.20
2023-04-20T02:10:00.835Z,4.21
2023-04-20T02:12:27.274Z,4.13
2023-04-20T02:14:53.712Z,4.09
2023-04-20T02:17:21.470Z,4.08
2023-04-20T02:19:47.970Z,4.06
2023-04-20T02:22:14.402Z,4.01
2023-04-20T02:24:41.464Z,3.97
2023-04-20T02:27:07.922Z,3.98
2023-04-20T02:29:35.500Z,4.00
2023-04-20T02:32:01.983Z,4.07
2023-04-20T02:34:28.423Z,4.10
2023-04-20T02:36:56.693Z,4.13
2023-04-20T02:39:23.124Z,4.07
2023-04-20T02:41:50.534Z,4.05
2023-04-20T02:44:17.022Z,4.05
2023-04-20T02:46:43.694Z,4.02
2023-04-20T02:49:10.493Z,3.99
2023-04-20T02:51:41.825Z,3.98
2023-04-20T02:54:08.348Z,3.96
2023-04-20T02:56:35.366Z,3.92
2023-04-20T02:59:05.448Z,3.90
2023-04-20T03:01:42.427Z,3.88
2023-04-20T03:04:19.382Z,3.83
2023-04-20T03:06:53.736Z,3.80
2023-04-20T03:09:26.017Z,3.79
2023-04-20T03:12:18.478Z,3.75
2023-04-20T03:15:12.029Z,3.71
2023-04-20T03:17:57.556Z,3.70
2023-04-20T03:20:24.888Z,3.67
2023-04-20T03:22:51.415Z,3.65
2023-04-20T03:25:20.622Z,3.63
2023-04-20T03:27:58.095Z,3.61
2023-04-20T03:30:25.142Z,3.58
2023-04-20T03:32:57.945Z,3.56
2023-04-20T03:35:24.792Z,3.54
2023-04-20T03:37:51.235Z,3.53
2023-04-20T03:40:17.664Z,3.51
2023-04-20T03:42:44.170Z,3.48
2023-04-20T03:45:11.256Z,3.45
2023-04-20T03:47:37.877Z,3.48
2023-04-20T03:50:05.625Z,3.47
2023-04-20T03:52:32.068Z,3.40
2023-04-20T03:55:02.332Z,3.28
2023-04-20T03:57:29.126Z,3.31
2023-04-20T03:59:55.823Z,3.39
2023-04-20T04:02:24.793Z,3.40
2023-04-20T04:04:52.575Z,3.37
2023-04-20T04:07:21.256Z,3.40
2023-04-20T04:09:48.626Z,3.43
2023-04-20T04:12:15.709Z,3.42
2023-04-20T04:14:42.761Z,3.39
2023-04-20T04:17:14.021Z,3.36
2023-04-20T04:19:43.546Z,3.34
2023-04-20T04:22:10.099Z,3.34
2023-04-20T04:24:43.943Z,3.35
2023-04-20T04:27:11.706Z,3.39
2023-04-20T04:29:50.608Z,3.40
2023-04-20T04:32:19.327Z,3.34
2023-04-20T04:34:45.781Z,3.27
2023-04-20T04:37:13.001Z,3.24
2023-04-20T04:39:44.421Z,3.24
2023-04-20T04:42:18.584Z,3.24
2023-04-20T04:44:46.041Z,3.32
2023-04-20T04:47:17.894Z,3.34
2023-04-20T04:49:45.515Z,3.38
2023-04-20T04:52:12.019Z,3.35
2023-04-20T04:54:38.483Z,3.36
2023-04-20T04:57:04.996Z,3.35
2023-04-20T04:59:31.569Z,3.37
2023-04-20T05:01:58.039Z,3.38
2023-04-20T05:04:24.645Z,3.34
2023-04-20T05:06:51.338Z,3.34
2023-04-20T05:09:17.960Z,3.32
2023-04-20T05:11:44.548Z,3.34
2023-04-20T05:14:11.083Z,3.36
2023-04-20T05:16:37.952Z,3.37
2023-04-20T05:19:04.835Z,3.39
2023-04-20T05:21:32.639Z,3.43
2023-04-20T05:23:59.081Z,3.44
2023-04-20T05:26:25.711Z,3.41
2023-04-20T05:28:52.205Z,3.39
2023-04-20T05:31:18.814Z,3.42
2023-04-20T05:33:45.336Z,3.45
2023-04-20T05:36:11.805Z,3.47
2023-04-20T05:38:38.416Z,3.40
2023-04-20T05:41:04.919Z,3.43
2023-04-20T05:43:31.362Z,3.41
2023-04-20T05:46:00.782Z,3.47
2023-04-20T05:48:29.782Z,3.50
2023-04-20T05:50:56.419Z,3.56
2023-04-20T05:53:22.941Z,3.34
2023-04-20T05:55:49.372Z,3.43
2023-04-20T05:58:16.809Z,3.51
2023-04-20T06:00:43.218Z,3.50
2023-04-20T06:03:09.815Z,3.54
2023-04-20T06:05:36.993Z,3.58
2023-04-20T06:08:03.792Z,3.65
2023-04-20T06:10:32.539Z,3.69
2023-04-20T06:12:59.133Z,3.76
2023-04-20T06:15:25.557Z,3.83
2023-04-20T06:17:52.386Z,3.83
2023-04-20T06:20:20.465Z,3.88
2023-04-20T06:22:48.385Z,3.86
2023-04-20T06:25:17.737Z,3.80
2023-04-20T06:27:44.505Z,3.53
2023-04-20T06:30:11.635Z,3.60
2023-04-20T06:32:38.540Z,3.73
2023-04-20T06:35:06.594Z,3.86
2023-04-20T06:37:33.363Z,3.82
2023-04-20T06:39:59.820Z,3.85
2023-04-20T06:42:27.292Z,3.90
2023-04-20T06:44:57.056Z,3.94
2023-04-20T06:47:23.673Z,3.76
2023-04-20T06:49:50.210Z,3.80
2023-04-20T06:52:17.112Z,3.78
2023-04-20T06:54:43.971Z,3.83
2023-04-20T06:57:10.593Z,3.81
2023-04-20T06:59:37.310Z,3.62
2023-04-20T07:02:04.302Z,3.79
2023-04-20T07:04:30.966Z,3.70
2023-04-20T07:06:57.732Z,3.83
2023-04-20T07:09:24.989Z,3.90
2023-04-20T07:11:51.514Z,3.98
2023-04-20T07:14:18.113Z,4.07
2023-04-20T07:16:44.885Z,4.08
2023-04-20T07:19:11.578Z,4.09
2023-04-20T07:21:38.009Z,4.19
2023-04-20T07:24:04.796Z,4.02
2023-04-20T07:26:31.771Z,3.93
2023-04-20T07:28:58.376Z,4.08
2023-04-20T07:31:25.202Z,4.19
2023-04-20T07:33:51.979Z,4.42
2023-04-20T07:36:19.825Z,4.46
2023-04-20T07:38:46.877Z,4.66
2023-04-20T07:41:13.458Z,4.83
2023-04-20T07:43:40.341Z,4.75
2023-04-20T07:46:07.845Z,4.75
2023-04-20T07:48:35.005Z,4.75
2023-04-20T07:51:02.011Z,4.81
2023-04-20T07:53:31.629Z,4.60
2023-04-20T07:55:58.059Z,4.63
2023-04-20T07:58:24.955Z,4.82
2023-04-20T08:00:51.602Z,4.73
2023-04-20T08:03:18.461Z,4.70
2023-04-20T08:05:45.969Z,4.70
2023-04-20T08:08:12.766Z,4.76
2023-04-20T08:10:39.266Z,4.91
2023-04-20T08:13:05.975Z,4.96
2023-04-20T08:15:32.530Z,4.88
2023-04-20T08:17:59.413Z,4.54
2023-04-20T08:20:26.398Z,4.54
2023-04-20T08:22:53.321Z,4.55
2023-04-20T08:25:20.135Z,4.50
2023-04-20T08:27:46.958Z,4.54
2023-04-20T08:30:13.658Z,4.61
2023-04-20T08:32:40.955Z,4.55
2023-04-20T08:35:08.557Z,4.52
2023-04-20T08:37:35.293Z,4.56
2023-04-20T08:40:01.724Z,4.43
2023-04-20T08:42:28.217Z,4.41
2023-04-20T08:44:54.653Z,4.36
2023-04-20T08:47:21.360Z,4.33
2023-04-20T08:49:52.833Z,4.35
2023-04-20T08:52:19.326Z,4.35
2023-04-20T08:54:56.122Z,4.34
2023-04-20T08:57:23.807Z,4.45
2023-04-20T08:59:50.601Z,4.20
2023-04-20T09:02:17.154Z,4.17
2023-04-20T09:04:43.808Z,4.19
2023-04-20T09:07:21.263Z,4.21
2023-04-20T09:10:00.766Z,4.13
2023-04-20T09:12:28.464Z,4.14
2023-04-20T09:14:55.852Z,4.15
2023-04-20T09:17:37.015Z,4.23
2023-04-20T09:20:05.200Z,4.38
2023-04-20T09:22:36.626Z,4.32
2023-04-20T09:25:13.882Z,4.38
2023-04-20T09:27:40.436Z,4.48
2023-04-20T09:30:07.798Z,4.56
2023-04-20T09:32:35.629Z,4.68
2023-04-20T09:35:02.086Z,4.66
2023-04-20T09:37:28.610Z,4.81
2023-04-20T09:39:59.974Z,4.83
2023-04-20T09:42:28.775Z,4.78
2023-04-20T09:44:55.824Z,4.88
2023-04-20T09:47:22.619Z,5.03
2023-04-20T09:49:50.099Z,4.98
2023-04-20T09:52:18.572Z,4.93
2023-04-20T09:54:45.857Z,5.04
2023-04-20T09:57:14.203Z,5.13
2023-04-20T09:59:46.485Z,5.23
2023-04-20T10:02:13.720Z,5.29
2023-04-20T10:04:56.274Z,5.45
2023-04-20T10:07:27.325Z,5.35
2023-04-20T10:10:10.644Z,5.50
2023-04-20T10:12:50.225Z,5.53
2023-04-20T10:15:17.483Z,5.53
2023-04-20T10:17:44.570Z,5.59
2023-04-20T10:20:20.775Z,5.60
2023-04-20T10:22:47.494Z,5.67
2023-04-20T10:25:20.406Z,5.72
2023-04-20T10:27:54.655Z,5.84
2023-04-20T10:30:21.661Z,5.83
2023-04-20T10:32:48.203Z,5.93
2023-04-20T10:35:16.368Z,5.72
2023-04-20T10:37:51.089Z,5.60
2023-04-20T10:40:25.400Z,5.47
2023-04-20T10:42:51.837Z,5.50
2023-04-20T10:45:18.269Z,5.54
2023-04-20T10:47:45.522Z,5.59
2023-04-20T10:50:15.013Z,5.61
2023-04-20T10:52:42.855Z,5.65
2023-04-20T10:55:25.051Z,5.52
2023-04-20T10:57:52.197Z,5.45
2023-04-20T11:00:22.877Z,5.50
2023-04-20T11:02:54.034Z,5.55
2023-04-20T11:05:21.506Z,5.60
2023-04-20T11:07:52.604Z,5.61
2023-04-20T11:10:19.962Z,5.58
2023-04-20T11:12:46.779Z,5.61
2023-04-20T11:15:13.808Z,5.69
2023-04-20T11:17:40.317Z,5.80
2023-04-20T11:20:12.664Z,5.84
2023-04-20T11:22:40.776Z,5.86
2023-04-20T11:25:09.353Z,5.96
2023-04-20T11:27:36.710Z,6.08
2023-04-20T11:30:05.542Z,6.16
2023-04-20T11:32:33.561Z,6.12
2023-04-20T11:35:09.364Z,6.07
2023-04-20T11:37:51.171Z,6.20
2023-04-20T11:40:17.909Z,6.18
2023-04-20T11:42:44.365Z,6.15
2023-04-20T11:45:11.626Z,6.33
2023-04-20T11:47:41.076Z,6.26
2023-04-20T11:50:09.248Z,6.19
2023-04-20T11:52:35.889Z,6.22
2023-04-20T11:55:02.649Z,6.27
2023-04-20T11:57:29.148Z,5.99
2023-04-20T11:59:55.564Z,6.09
2023-04-20T12:02:22.802Z,5.95
2023-04-20T12:04:49.459Z,5.90
2023-04-20T12:07:16.155Z,5.98
2023-04-20T12:09:42.596Z,6.02
2023-04-20T12:12:09.828Z,6.14
2023-04-20T12:14:36.615Z,6.26
2023-04-20T12:17:04.566Z,6.13
2023-04-20T12:19:31.722Z,6.34
2023-04-20T12:21:58.180Z,6.54
2023-04-20T12:24:24.680Z,6.56
2023-04-20T12:26:51.130Z,6.42
2023-04-20T12:29:17.797Z,6.08
2023-04-20T12:31:44.438Z,6.06
2023-04-20T12:34:11.109Z,6.05
2023-04-20T12:36:37.672Z,6.17
2023-04-20T12:39:04.271Z,5.90
2023-04-20T12:41:30.734Z,5.95
2023-04-20T12:43:57.158Z,6.32
2023-04-20T12:46:23.589Z,6.43
2023-04-20T12:48:50.145Z,6.58
2023-04-20T12:51:16.759Z,6.83
2023-04-20T12:53:43.241Z,6.96
2023-04-20T12:56:09.915Z,6.68
2023-04-20T12:58:36.479Z,6.30
2023-04-20T13:01:03.552Z,6.37
2023-04-20T13:03:30.291Z,6.37
2023-04-20T13:05:56.956Z,6.16
2023-04-20T13:08:23.387Z,6.08
2023-04-20T13:10:49.799Z,6.10
2023-04-20T13:13:16.218Z,6.14
2023-04-20T13:15:42.608Z,6.04
2023-04-20T13:18:09.826Z,5.89
2023-04-20T13:20:36.692Z,5.83
2023-04-20T13:23:04.176Z,5.93
2023-04-20T13:25:34.527Z,6.08
2023-04-20T13:28:02.831Z,6.16
2023-04-20T13:30:29.411Z,6.07
2023-04-20T13:32:55.984Z,5.96
2023-04-20T13:35:23.545Z,5.88
2023-04-20T13:37:50.343Z,5.89
2023-04-20T13:40:16.851Z,6.05
2023-04-20T13:42:43.330Z,6.06
2023-04-20T13:45:10.418Z,6.03
2023-04-20T13:47:38.509Z,5.96
2023-04-20T13:50:06.606Z,5.78
2023-04-20T13:52:33.312Z,5.60
2023-04-20T13:54:59.804Z,5.83
2023-04-20T13:57:26.251Z,6.06
2023-04-20T13:59:53.052Z,5.97
2023-04-20T14:02:19.658Z,6.08
2023-04-20T14:04:46.334Z,6.11
2023-04-20T14:07:12.824Z,6.11
2023-04-20T14:09:39.252Z,6.17
2023-04-20T14:12:05.877Z,6.11
2023-04-20T14:14:32.417Z,6.17
2023-04-20T14:16:58.862Z,6.06
2023-04-20T14:19:25.329Z,6.07
2023-04-20T14:21:51.803Z,6.07
2023-04-20T14:24:18.553Z,5.80
2023-04-20T14:26:45.201Z,5.84
2023-04-20T14:29:11.775Z,5.84
2023-04-20T14:31:38.349Z,5.89
2023-04-20T14:34:04.820Z,5.78
2023-04-20T14:36:32.368Z,5.85
2023-04-20T14:38:58.769Z,5.84
2023-04-20T14:41:25.202Z,5.84
2023-04-20T14:43:51.666Z,5.84
2023-04-20T14:46:18.732Z,5.71
2023-04-20T14:48:46.466Z,5.62
2023-04-20T14:51:13.440Z,5.57
2023-04-20T14:53:39.919Z,5.65
2023-04-20T14:56:06.480Z,5.69
2023-04-20T14:58:33.364Z,5.71
2023-04-20T15:00:59.803Z,5.74
2023-04-20T15:03:26.544Z,5.72
2023-04-20T15:05:53.562Z,5.84
2023-04-20T15:08:19.986Z,5.88
2023-04-20T15:10:46.489Z,5.89
2023-04-20T15:13:13.339Z,5.89
2023-04-20T15:15:48.295Z,5.85
2023-04-20T15:18:16.512Z,5.88
2023-04-20T15:20:43.062Z,5.96
2023-04-20T15:23:09.512Z,6.02
2023-04-20T15:25:35.988Z,5.97
2023-04-20T15:28:02.399Z,5.99
2023-04-20T15:30:30.216Z,5.97
2023-04-20T15:33:04.632Z,5.93
2023-04-20T15:35:31.954Z,5.87
2023-04-20T15:37:58.413Z,5.90
2023-04-20T15:40:24.968Z,5.80
2023-04-20T15:42:51.627Z,5.72
2023-04-20T15:45:18.151Z,5.75
2023-04-20T15:47:44.685Z,5.66
2023-04-20T15:50:11.305Z,5.47
2023-04-20T15:52:37.797Z,5.50
2023-04-20T15:55:04.766Z,5.57
2023-04-20T15:57:31.391Z,5.57
2023-04-20T15:59:57.933Z,5.57
2023-04-20T16:02:24.616Z,5.63
2023-04-20T16:04:51.431Z,5.60
2023-04-20T16:07:18.025Z,5.71
2023-04-20T16:09:44.476Z,5.72
2023-04-20T16:12:11.007Z,5.65
2023-04-20T16:14:37.455Z,5.67
2023-04-20T16:17:03.963Z,5.75
2023-04-20T16:19:31.301Z,5.71
2023-04-20T16:21:58.203Z,5.74
2023-04-20T16:24:24.664Z,5.76
2023-04-20T16:26:51.295Z,5.71
2023-04-20T16:29:17.728Z,5.81
2023-04-20T16:31:44.306Z,5.88
2023-04-20T16:34:10.905Z,5.86
2023-04-20T16:36:37.410Z,5.84
2023-04-20T16:39:06.075Z,5.78
2023-04-20T16:41:32.518Z,5.76
2023-04-20T16:43:58.968Z,5.73
2023-04-20T16:46:25.765Z,5.74
2023-04-20T16:48:54.418Z,5.76
2023-04-20T16:51:20.903Z,5.80
2023-04-20T16:53:47.408Z,5.81
2023-04-20T16:56:15.645Z,5.77
2023-04-20T16:58:42.098Z,5.83
2023-04-20T17:01:08.740Z,5.81
2023-04-20T17:03:35.504Z,5.84
2023-04-20T17:06:07.266Z,5.80
2023-04-20T17:08:34.724Z,5.77
2023-04-20T17:11:01.870Z,5.77
2023-04-20T17:13:28.508Z,5.86
2023-04-20T17:15:55.013Z,5.88
2023-04-20T17:18:21.815Z,5.88
2023-04-20T17:20:48.527Z,5.88
2023-04-20T17:23:17.687Z,5.89
2023-04-20T17:25:47.131Z,5.88
2023-04-20T17:28:13.936Z,5.87
2023-04-20T17:30:41.366Z,5.85
2023-04-20T17:33:12.330Z,5.85
2023-04-20T17:35:39.374Z,5.82
2023-04-20T17:38:05.968Z,5.75
2023-04-20T17:40:32.496Z,5.73
2023-04-20T17:42:58.924Z,5.69
2023-04-20T17:45:25.730Z,5.65
2023-04-20T17:47:53.521Z,5.64
2023-04-20T17:50:20.254Z,5.59
2023-04-20T17:52:46.671Z,5.52
2023-04-20T17:55:13.191Z,5.54
2023-04-20T17:57:39.761Z,5.54
2023-04-20T18:00:08.555Z,5.50
2023-04-20T18:02:39.258Z,5.49
2023-04-20T18:05:06.346Z,5.45
2023-04-20T18:07:32.853Z,5.42
2023-04-20T18:09:59.262Z,5.43
2023-04-20T18:12:25.911Z,5.41
2023-04-20T18:14:52.370Z,5.37
2023-04-20T18:17:18.869Z,5.37
2023-04-20T18:19:45.672Z,5.37
2023-04-20T18:22:12.261Z,5.33
2023-04-20T18:24:38.705Z,5.31
2023-04-20T18:27:05.399Z,5.31
2023-04-20T18:29:31.813Z,5.29
2023-04-20T18:32:01.084Z,5.29
2023-04-20T18:34:30.896Z,5.30
2023-04-20T18:36:58.208Z,5.27
2023-04-20T18:39:25.427Z,5.28
2023-04-20T18:41:51.888Z,5.28
2023-04-20T18:44:18.501Z,5.24
2023-04-20T18:46:45.405Z,5.24
2023-04-20T18:49:11.974Z,5.22
2023-04-20T18:51:38.468Z,5.26
2023-04-20T18:54:05.097Z,5.26
2023-04-20T18:56:32.219Z,5.28
2023-04-20T18:58:59.465Z,5.30
2023-04-20T19:01:26.196Z,5.27
2023-04-20T19:03:52.905Z,5.27
2023-04-20T19:06:19.680Z,5.28
2023-04-20T19:08:46.098Z,5.21
2023-04-20T19:11:12.539Z,5.18
2023-04-20T19:13:44.357Z,5.19
2023-04-20T19:16:12.284Z,5.21
2023-04-20T19:18:39.240Z,5.23
2023-04-20T19:21:05.944Z,5.21
2023-04-20T19:23:32.532Z,5.19
2023-04-20T19:25:59.008Z,5.14
2023-04-20T19:28:25.498Z,5.09
2023-04-20T19:30:51.956Z,5.05
2023-04-20T19:33:18.724Z,5.03
2023-04-20T19:35:50.501Z,4.96
2023-04-20T19:38:21.453Z,4.98
2023-04-20T19:40:48.786Z,4.93
2023-04-20T19:43:16.819Z,4.92
2023-04-20T19:45:43.356Z,4.88
2023-04-20T19:48:09.854Z,4.86
2023-04-20T19:50:36.462Z,4.84
2023-04-20T19:53:02.946Z,4.79
2023-04-20T19:55:29.544Z,4.75
2023-04-20T19:57:56.126Z,4.71
2023-04-20T20:00:22.639Z,4.72
2023-04-20T20:02:49.266Z,4.75
2023-04-20T20:05:15.888Z,4.77
2023-04-20T20:07:42.584Z,4.75
2023-04-20T20:10:09.071Z,4.75
2023-04-20T20:12:35.643Z,4.74
2023-04-20T20:15:03.815Z,4.72
2023-04-20T20:17:30.328Z,4.68
2023-04-20T20:19:56.816Z,4.68
2023-04-20T20:22:23.265Z,4.67
2023-04-20T20:24:51.873Z,4.67
2023-04-20T20:27:18.896Z,4.66
2023-04-20T20:29:45.763Z,4.65
2023-04-20T20:32:12.238Z,4.64
2023-04-20T20:34:39.173Z,4.60
2023-04-20T20:37:05.939Z,4.56
2023-04-20T20:39:32.696Z,4.53
2023-04-20T20:41:59.744Z,4.57
2023-04-20T20:44:27.865Z,4.53
2023-04-20T20:46:54.927Z,4.52
2023-04-20T20:49:21.573Z,4.48
2023-04-20T20:51:48.212Z,4.43
2023-04-20T20:54:14.911Z,4.44
2023-04-20T20:56:41.688Z,4.41
2023-04-20T20:59:08.388Z,4.41
2023-04-20T21:01:34.944Z,4.39
2023-04-20T21:04:02.122Z,4.37
2023-04-20T21:06:29.461Z,4.37
2023-04-20T21:08:56.184Z,4.38
2023-04-20T21:11:22.951Z,4.36
2023-04-20T21:13:49.818Z,4.35
2023-04-20T21:16:16.860Z,4.34
2023-04-20T21:18:43.285Z,4.37
2023-04-20T21:21:14.133Z,4.40
2023-04-20T21:23:40.657Z,4.42
2023-04-20T21:26:07.232Z,4.46
2023-04-20T21:28:34.747Z,4.49
2023-04-20T21:31:01.389Z,4.52
2023-04-20T21:33:27.941Z,4.54
2023-04-20T21:35:57.648Z,4.56
2023-04-20T21:38:25.573Z,4.54
2023-04-20T21:40:52.429Z,4.52
2023-04-20T21:43:18.972Z,4.47
2023-04-20T21:45:45.534Z,4.49
2023-04-20T21:48:12.420Z,4.52
2023-04-20T21:50:39.183Z,4.54
2023-04-20T21:53:05.746Z,4.55
2023-04-20T21:55:32.763Z,4.53
2023-04-20T21:57:59.169Z,4.48
2023-04-20T22:00:25.634Z,4.40
2023-04-20T22:02:52.233Z,4.36
2023-04-20T22:05:19.603Z,4.32
2023-04-20T22:07:46.685Z,4.28
2023-04-20T22:10:13.445Z,4.23
2023-04-20T22:12:42.251Z,4.15
2023-04-20T22:15:14.422Z,4.15
2023-04-20T22:17:41.995Z,4.10
2023-04-20T22:20:10.485Z,4.09
2023-04-20T22:22:38.912Z,4.05
2023-04-20T22:25:06.982Z,3.99
2023-04-20T22:27:35.856Z,3.93
2023-04-20T22:30:02.781Z,3.87
2023-04-20T22:32:29.234Z,3.83
2023-04-20T22:34:55.874Z,3.83
2023-04-20T22:37:22.343Z,3.80
2023-04-20T22:39:48.838Z,3.77
2023-04-20T22:42:15.717Z,3.68
2023-04-20T22:44:42.185Z,3.65
2023-04-20T22:47:08.772Z,3.63
2023-04-20T22:49:35.830Z,3.59
2023-04-20T22:52:02.774Z,3.54
2023-04-20T22:54:29.696Z,3.49
2023-04-20T22:56:56.909Z,3.48
2023-04-20T22:59:23.438Z,3.48
2023-04-20T23:01:49.879Z,3.40
2023-04-20T23:04:16.708Z,3.39
2023-04-20T23:06:43.947Z,3.37
2023-04-20T23:09:17.066Z,3.34
2023-04-20T23:11:47.177Z,3.27
2023-04-20T23:14:14.090Z,3.27
2023-04-20T23:16:41.035Z,3.24
2023-04-20T23:19:07.680Z,3.20
2023-04-20T23:21:34.097Z,3.17
2023-04-20T23:24:00.636Z,3.10
2023-04-20T23:26:27.111Z,3.05
2023-04-20T23:28:53.731Z,2.98
2023-04-20T23:31:20.685Z,2.97
2023-04-20T23:33:47.948Z,2.92
2023-04-20T23:36:14.754Z,2.81
2023-04-20T23:38:41.933Z,2.78
2023-04-20T23:41:10.284Z,2.81
2023-04-20T23:43:38.496Z,2.91
2023-04-20T23:46:05.909Z,2.94
2023-04-20T23:48:32.785Z,2.98
2023-04-20T23:50:59.554Z,3.05
2023-04-20T23:53:26.508Z,3.07
2023-04-20T23:55:55.426Z,3.12
2023-04-20T23:58:28.456Z,3.18
